Time,TemperatureF,DewpointF,PressureIn,WindDirection,WindDirectionDegrees,WindSpeedMPH,WindSpeedGustMPH,Humidity,HourlyPrecipIn,Conditions,Clouds,dailyrainin,SoftwareType,DateUTC
2013-01-13 00:02:00,4.4,0.6,30.17,North,5,3.0,9.0,84,0.00,,---,0.00,VWS V13.01,2013-01-13 06:02:00,
2013-01-13 00:08:00,4.2,0.2,30.17,NW,309,8.0,11.0,83,0.00,,---,0.00,VWS V13.01,2013-01-13 06:08:00,
2013-01-13 00:13:00,4.1,0.1,30.17,NW,305,9.0,12.0,83,0.00,,---,0.00,VWS V13.01,2013-01-13 06:13:00,
2013-01-13 00:18:00,4.0,0.0,30.19,NNW,337,7.0,13.0,83,0.00,,---,0.00,VWS V13.01,2013-01-13 06:18:00,
2013-01-13 00:23:00,3.9,-0.1,30.19,NW,306,2.0,13.0,83,0.00,,---,0.00,VWS V13.01,2013-01-13 06:23:00,
2013-01-13 00:29:00,3.8,-0.2,30.19,NNW,338,4.0,17.0,83,0.00,,---,0.00,VWS V13.01,2013-01-13 06:29:00,
2013-01-13 00:34:00,3.8,0.1,30.19,WNW,299,4.0,11.0,84,0.00,,---,0.00,VWS V13.01,2013-01-13 06:34:00,
2013-01-13 00:39:00,3.7,0.0,30.19,NNW,331,4.0,16.0,84,0.00,,---,0.00,VWS V13.01,2013-01-13 06:39:00,
2013-01-13 00:44:00,3.7,0.0,30.19,North,349,5.0,16.0,84,0.00,,---,0.00,VWS V13.01,2013-01-13 06:44:00,
2013-01-13 00:50:00,3.6,-0.1,30.17,NW,323,1.0,10.0,84,0.00,,---,0.00,VWS V13.01,2013-01-13 06:50:00,
2013-01-13 00:55:00,3.5,-0.5,30.17,North,360,5.0,15.0,83,0.00,,---,0.00,VWS V13.01,2013-01-13 06:55:00,
2013-01-13 01:00:00,3.3,-0.7,30.17,NNW,346,2.0,15.0,83,0.00,,---,0.00,VWS V13.01,2013-01-13 07:00:00,
2013-01-13 01:05:00,3.3,-0.7,30.20,WNW,298,2.0,10.0,83,0.00,,---,0.00,VWS V13.01,2013-01-13 07:05:00,
2013-01-13 01:10:00,3.2,-0.8,30.20,WNW,295,3.0,13.0,83,0.00,,---,0.00,VWS V13.01,2013-01-13 07:10:00,
2013-01-13 01:16:00,3.0,-0.7,30.21,WNW,294,6.0,13.0,84,0.00,,---,0.00,VWS V13.01,2013-01-13 07:16:00,
2013-01-13 01:21:00,2.9,-0.8,30.21,WNW,286,3.0,11.0,84,0.00,,---,0.00,VWS V13.01,2013-01-13 07:21:00,
2013-01-13 01:26:00,2.8,-0.9,30.21,NNW,345,2.0,12.0,84,0.00,,---,0.00,VWS V13.01,2013-01-13 07:26:00,
2013-01-13 01:31:00,2.8,-0.9,30.21,NW,325,6.0,6.0,84,0.00,,---,0.00,VWS V13.01,2013-01-13 07:31:00,
2013-01-13 01:37:00,2.8,-0.9,30.21,NNW,331,5.0,7.0,84,0.00,,---,0.00,VWS V13.01,2013-01-13 07:37:00,
2013-01-13 01:42:00,2.9,-0.6,30.21,NNW,335,4.0,7.0,85,0.00,,---,0.00,VWS V13.01,2013-01-13 07:42:00,
2013-01-13 01:47:00,2.9,-0.6,30.22,WNW,286,7.0,7.0,85,0.00,,---,0.00,VWS V13.01,2013-01-13 07:47:00,
2013-01-13 01:52:00,2.8,-0.9,30.22,NNE,18,4.0,13.0,84,0.00,,---,0.00,VWS V13.01,2013-01-13 07:52:00,
2013-01-13 01:58:00,2.6,-1.1,30.22,North,355,5.0,13.0,84,0.00,,---,0.00,VWS V13.01,2013-01-13 07:58:00,
2013-01-13 02:03:00,2.4,-1.3,30.24,NW,306,2.0,9.0,84,0.00,,---,0.00,VWS V13.01,2013-01-13 08:03:00,
2013-01-13 02:08:00,2.3,-1.7,30.24,NNW,336,3.0,12.0,83,0.00,,---,0.00,VWS V13.01,2013-01-13 08:08:00,
2013-01-13 02:13:00,2.1,-1.6,30.24,NNW,342,3.0,12.0,84,0.00,,---,0.00,VWS V13.01,2013-01-13 08:13:00,
2013-01-13 02:19:00,2.0,-1.7,30.25,NNW,342,2.0,9.0,84,0.00,,---,0.00,VWS V13.01,2013-01-13 08:19:00,
2013-01-13 02:24:00,2.0,-1.5,30.25,NW,321,2.0,9.0,85,0.00,,---,0.00,VWS V13.01,2013-01-13 08:24:00,
2013-01-13 02:29:00,2.1,-1.4,30.25,NNW,327,5.0,10.0,85,0.00,,---,0.00,VWS V13.01,2013-01-13 08:29:00,
2013-01-13 02:34:00,2.1,-1.4,30.26,NNW,333,4.0,5.0,85,0.00,,---,0.00,VWS V13.01,2013-01-13 08:34:00,
2013-01-13 02:40:00,2.1,-1.4,30.26,NNW,327,5.0,6.0,85,0.00,,---,0.00,VWS V13.01,2013-01-13 08:40:00,
2013-01-13 02:45:00,2.0,-1.5,30.26,NW,304,3.0,6.0,85,0.00,,---,0.00,VWS V13.01,2013-01-13 08:45:00,
2013-01-13 02:50:00,1.9,-1.6,30.26,NW,323,3.0,8.0,85,0.00,,---,0.00,VWS V13.01,2013-01-13 08:50:00,
2013-01-13 02:56:00,1.7,-1.8,30.26,NW,312,2.0,8.0,85,0.00,,---,0.00,VWS V13.01,2013-01-13 08:56:00,
2013-01-13 03:01:00,1.7,-1.8,30.26,NNW,336,4.0,8.0,85,0.00,,---,0.00,VWS V13.01,2013-01-13 09:01:00,
2013-01-13 03:06:00,1.7,-1.8,30.26,NW,321,4.0,6.0,85,0.00,,---,0.00,VWS V13.01,2013-01-13 09:06:00,
2013-01-13 03:11:00,1.7,-1.8,30.26,NW,322,5.0,9.0,85,0.00,,---,0.00,VWS V13.01,2013-01-13 09:11:00,
2013-01-13 03:17:00,1.6,-1.9,30.28,NNW,336,2.0,7.0,85,0.00,,---,0.00,VWS V13.01,2013-01-13 09:17:00,
2013-01-13 03:22:00,1.3,-2.2,30.28,NW,325,5.0,10.0,85,0.00,,---,0.00,VWS V13.01,2013-01-13 09:22:00,
2013-01-13 03:27:00,1.0,-2.5,30.28,NNW,337,1.0,10.0,85,0.00,,---,0.00,VWS V13.01,2013-01-13 09:27:00,
2013-01-13 03:32:00,0.9,-2.5,30.28,NNW,330,1.0,4.0,85,0.00,,---,0.00,VWS V13.01,2013-01-13 09:32:00,
2013-01-13 03:38:00,0.8,-2.6,30.28,North,351,2.0,6.0,85,0.00,,---,0.00,VWS V13.01,2013-01-13 09:38:00,
2013-01-13 03:43:00,0.6,-2.8,30.28,North,355,2.0,6.0,85,0.00,,---,0.00,VWS V13.01,2013-01-13 09:43:00,
2013-01-13 03:48:00,0.6,-2.8,30.27,North,355,2.0,5.0,85,0.00,,---,0.00,VWS V13.01,2013-01-13 09:48:00,
2013-01-13 03:53:00,0.5,-2.7,30.27,North,355,1.0,5.0,86,0.00,,---,0.00,VWS V13.01,2013-01-13 09:53:00,
2013-01-13 03:59:00,0.4,-2.8,30.27,NNW,331,2.0,7.0,86,0.00,,---,0.00,VWS V13.01,2013-01-13 09:59:00,
2013-01-13 04:04:00,0.4,-2.8,30.29,NNW,346,2.0,6.0,86,0.00,,---,0.00,VWS V13.01,2013-01-13 10:04:00,
2013-01-13 04:09:00,0.3,-2.9,30.29,NNW,335,3.0,7.0,86,0.00,,---,0.00,VWS V13.01,2013-01-13 10:09:00,
2013-01-13 04:14:00,0.2,-3.0,30.29,NNW,337,4.0,9.0,86,0.00,,---,0.00,VWS V13.01,2013-01-13 10:14:00,
2013-01-13 04:20:00,0.2,-3.2,30.29,North,11,1.0,10.0,85,0.00,,---,0.00,VWS V13.01,2013-01-13 10:20:00,
2013-01-13 04:25:00,0.2,-3.0,30.29,NW,315,4.0,10.0,86,0.00,,---,0.00,VWS V13.01,2013-01-13 10:25:00,
2013-01-13 04:30:00,0.1,-3.1,30.29,NW,323,4.0,10.0,86,0.00,,---,0.00,VWS V13.01,2013-01-13 10:30:00,
2013-01-13 04:35:00,0.1,-3.3,30.29,WNW,302,5.0,9.0,85,0.00,,---,0.00,VWS V13.01,2013-01-13 10:35:00,
2013-01-13 04:41:00,0.1,-3.4,30.29,NW,315,4.0,11.0,85,0.00,,---,0.00,VWS V13.01,2013-01-13 10:41:00,
2013-01-13 04:46:00,0.1,-3.4,30.29,North,355,3.0,11.0,85,0.00,,---,0.00,VWS V13.01,2013-01-13 10:46:00,
2013-01-13 04:51:00,-0.1,-3.5,30.29,North,355,4.0,8.0,85,0.00,,---,0.00,VWS V13.01,2013-01-13 10:51:00,
2013-01-13 04:56:00,-0.1,-3.5,30.29,North,5,2.0,8.0,85,0.00,,---,0.00,VWS V13.01,2013-01-13 10:56:00,
2013-01-13 05:02:00,-0.2,-3.6,30.27,North,5,3.0,5.0,85,0.00,,---,0.00,VWS V13.01,2013-01-13 11:02:00,
2013-01-13 05:07:00,-0.3,-3.7,30.27,NNW,345,2.0,8.0,85,0.00,,---,0.00,VWS V13.01,2013-01-13 11:07:00,
2013-01-13 05:12:00,-0.3,-3.5,30.27,NNW,343,3.0,8.0,86,0.00,,---,0.00,VWS V13.01,2013-01-13 11:12:00,
2013-01-13 05:18:00,-0.3,-3.5,30.28,WNW,297,1.0,4.0,86,0.00,,---,0.00,VWS V13.01,2013-01-13 11:18:00,
2013-01-13 05:23:00,-0.3,-3.5,30.28,NW,320,2.0,7.0,86,0.00,,---,0.00,VWS V13.01,2013-01-13 11:23:00,
2013-01-13 05:28:00,-0.3,-3.5,30.28,NNW,344,6.0,7.0,86,0.00,,---,0.00,VWS V13.01,2013-01-13 11:28:00,
2013-01-13 05:33:00,-0.4,-3.6,30.29,WNW,299,2.0,6.0,86,0.00,,---,0.00,VWS V13.01,2013-01-13 11:33:00,
2013-01-13 05:39:00,-0.5,-3.7,30.29,NNW,329,5.0,7.0,86,0.00,,---,0.00,VWS V13.01,2013-01-13 11:39:00,
2013-01-13 05:44:00,-0.7,-3.9,30.29,North,355,5.0,11.0,86,0.00,,---,0.00,VWS V13.01,2013-01-13 11:44:00,
2013-01-13 05:49:00,-0.8,-4.0,30.30,NNW,346,0.0,4.0,86,0.00,,---,0.00,VWS V13.01,2013-01-13 11:49:00,
2013-01-13 05:54:00,-0.8,-4.0,30.30,NW,323,3.0,9.0,86,0.00,,---,0.00,VWS V13.01,2013-01-13 11:54:00,
2013-01-13 06:00:00,-0.8,-4.0,30.30,NW,323,4.0,9.0,86,0.00,,---,0.00,VWS V13.01,2013-01-13 12:00:00,
2013-01-13 06:05:00,-0.9,-4.1,30.30,NNW,348,0.0,9.0,86,0.00,,---,0.00,VWS V13.01,2013-01-13 12:05:00,
2013-01-13 06:10:00,-0.9,-4.1,30.30,NNW,328,1.0,9.0,86,0.00,,---,0.00,VWS V13.01,2013-01-13 12:10:00,
2013-01-13 06:15:00,-0.9,-4.1,30.31,NNW,344,2.0,9.0,86,0.00,,---,0.00,VWS V13.01,2013-01-13 12:15:00,
2013-01-13 06:21:00,-1.0,-4.2,30.31,NNW,333,2.0,9.0,86,0.00,,---,0.00,VWS V13.01,2013-01-13 12:21:00,
2013-01-13 06:26:00,-1.1,-4.3,30.31,NNW,328,3.0,9.0,86,0.00,,---,0.00,VWS V13.01,2013-01-13 12:26:00,
2013-01-13 06:31:00,-1.1,-4.3,30.32,NW,319,6.0,9.0,86,0.00,,---,0.00,VWS V13.01,2013-01-13 12:31:00,
2013-01-13 06:36:00,-1.2,-4.4,30.32,NNW,347,4.0,11.0,86,0.00,,---,0.00,VWS V13.01,2013-01-13 12:36:00,
2013-01-13 06:42:00,-1.2,-4.4,30.32,NNW,329,1.0,11.0,86,0.00,,---,0.00,VWS V13.01,2013-01-13 12:42:00,
2013-01-13 06:47:00,-1.2,-4.4,30.32,North,351,6.0,9.0,86,0.00,,---,0.00,VWS V13.01,2013-01-13 12:47:00,
2013-01-13 06:52:00,-1.3,-4.5,30.32,NW,325,3.0,9.0,86,0.00,,---,0.00,VWS V13.01,2013-01-13 12:52:00,
2013-01-13 06:57:00,-1.3,-4.5,30.32,NNW,337,7.0,11.0,86,0.00,,---,0.00,VWS V13.01,2013-01-13 12:57:00,
2013-01-13 07:03:00,-1.4,-4.6,30.34,NW,307,7.0,7.0,86,0.00,,---,0.00,VWS V13.01,2013-01-13 13:03:00,
2013-01-13 07:08:00,-1.5,-4.7,30.34,NNW,331,1.0,9.0,86,0.00,,---,0.00,VWS V13.01,2013-01-13 13:08:00,
2013-01-13 07:13:00,-1.6,-4.8,30.34,NNW,332,1.0,9.0,86,0.00,,---,0.00,VWS V13.01,2013-01-13 13:13:00,
2013-01-13 07:18:00,-1.7,-4.9,30.35,NW,307,3.0,6.0,86,0.00,,---,0.00,VWS V13.01,2013-01-13 13:18:00,
2013-01-13 07:24:00,-1.8,-5.0,30.35,North,5,3.0,11.0,86,0.00,,---,0.00,VWS V13.01,2013-01-13 13:24:00,
2013-01-13 07:29:00,-1.8,-5.0,30.35,NNW,329,5.0,11.0,86,0.00,,---,0.00,VWS V13.01,2013-01-13 13:29:00,
2013-01-13 07:34:00,-1.9,-5.1,30.35,NW,311,2.0,9.0,86,0.00,,---,0.00,VWS V13.01,2013-01-13 13:34:00,
2013-01-13 07:39:00,-1.9,-5.1,30.35,NW,312,3.0,9.0,86,0.00,,---,0.00,VWS V13.01,2013-01-13 13:39:00,
2013-01-13 07:45:00,-1.9,-5.1,30.35,NW,324,1.0,9.0,86,0.00,,---,0.00,VWS V13.01,2013-01-13 13:45:00,
2013-01-13 07:50:00,-2.0,-5.2,30.36,NW,315,1.0,7.0,86,0.00,,---,0.00,VWS V13.01,2013-01-13 13:50:00,
2013-01-13 07:55:00,-2.1,-5.2,30.36,NW,319,7.0,7.0,86,0.00,,---,0.00,VWS V13.01,2013-01-13 13:55:00,
2013-01-13 08:00:00,-2.0,-5.2,30.36,NW,321,5.0,7.0,86,0.00,,---,0.00,VWS V13.01,2013-01-13 14:00:00,
2013-01-13 08:06:00,-2.0,-5.2,30.36,NNW,347,1.0,10.0,86,0.00,,---,0.00,VWS V13.01,2013-01-13 14:06:00,
2013-01-13 08:11:00,-1.9,-5.1,30.36,NW,314,4.0,10.0,86,0.00,,---,0.00,VWS V13.01,2013-01-13 14:11:00,
2013-01-13 08:16:00,-1.9,-5.1,30.39,NNW,347,6.0,10.0,86,0.00,,---,0.00,VWS V13.01,2013-01-13 14:16:00,
2013-01-13 08:22:00,-1.9,-5.1,30.39,NW,308,5.0,9.0,86,0.00,,---,0.00,VWS V13.01,2013-01-13 14:22:00,
2013-01-13 08:27:00,-1.8,-5.0,30.39,West,272,3.0,9.0,86,0.00,,---,0.00,VWS V13.01,2013-01-13 14:27:00,
2013-01-13 08:32:00,-1.8,-5.0,30.40,NW,306,1.0,3.0,86,0.00,,---,0.00,VWS V13.01,2013-01-13 14:32:00,
2013-01-13 08:37:00,-1.8,-5.0,30.40,West,264,5.0,7.0,86,0.00,,---,0.00,VWS V13.01,2013-01-13 14:37:00,
2013-01-13 08:43:00,-1.7,-4.9,30.40,WNW,293,7.0,9.0,86,0.00,,---,0.00,VWS V13.01,2013-01-13 14:43:00,
2013-01-13 08:48:00,-1.7,-4.9,30.41,NW,315,2.0,6.0,86,0.00,,---,0.00,VWS V13.01,2013-01-13 14:48:00,
2013-01-13 08:53:00,-1.7,-4.9,30.41,NNW,342,4.0,11.0,86,0.00,,---,0.00,VWS V13.01,2013-01-13 14:53:00,
2013-01-13 08:58:00,-1.9,-5.3,30.41,WNW,300,2.0,12.0,85,0.00,,---,0.00,VWS V13.01,2013-01-13 14:58:00,
2013-01-13 09:04:00,-1.8,-5.0,30.41,NNW,336,3.0,6.0,86,0.00,,---,0.00,VWS V13.01,2013-01-13 15:04:00,
2013-01-13 09:09:00,-1.6,-4.8,30.41,NW,314,1.0,6.0,86,0.00,,---,0.00,VWS V13.01,2013-01-13 15:09:00,
2013-01-13 09:14:00,-1.2,-4.4,30.41,WNW,284,5.0,6.0,86,0.00,,---,0.00,VWS V13.01,2013-01-13 15:14:00,
2013-01-13 09:19:00,-1.2,-4.4,30.40,West,278,2.0,9.0,86,0.00,,---,0.00,VWS V13.01,2013-01-13 15:19:00,
2013-01-13 09:25:00,-1.4,-4.6,30.40,NW,311,4.0,9.0,86,0.00,,---,0.00,VWS V13.01,2013-01-13 15:25:00,
2013-01-13 09:30:00,-1.1,-4.3,30.40,NNW,331,2.0,9.0,86,0.00,,---,0.00,VWS V13.01,2013-01-13 15:30:00,
2013-01-13 09:35:00,-0.7,-3.9,30.40,NNW,328,4.0,9.0,86,0.00,,---,0.00,VWS V13.01,2013-01-13 15:35:00,
2013-01-13 09:41:00,-0.5,-3.7,30.40,NW,309,3.0,9.0,86,0.00,,---,0.00,VWS V13.01,2013-01-13 15:41:00,
2013-01-13 09:46:00,-0.5,-3.7,30.41,NNW,342,6.0,9.0,86,0.00,,---,0.00,VWS V13.01,2013-01-13 15:46:00,
2013-01-13 09:51:00,-0.1,-3.2,30.41,West,272,2.0,9.0,86,0.00,,---,0.00,VWS V13.01,2013-01-13 15:51:00,
2013-01-13 09:56:00,0.2,-3.0,30.41,West,278,3.0,11.0,86,0.00,,---,0.00,VWS V13.01,2013-01-13 15:56:00,
2013-01-13 10:02:00,0.2,-3.0,30.40,WNW,294,4.0,5.0,86,0.00,,---,0.00,VWS V13.01,2013-01-13 16:02:00,
2013-01-13 10:07:00,-0.1,-3.5,30.40,NW,309,6.0,10.0,85,0.00,,---,0.00,VWS V13.01,2013-01-13 16:07:00,
2013-01-13 10:12:00,-0.3,-3.7,30.40,NW,324,7.0,12.0,85,0.00,,---,0.00,VWS V13.01,2013-01-13 16:12:00,
2013-01-13 10:17:00,-0.4,-3.8,30.39,NW,319,2.0,6.0,85,0.00,,---,0.00,VWS V13.01,2013-01-13 16:17:00,
2013-01-13 10:23:00,-0.6,-4.0,30.39,WNW,296,4.0,11.0,85,0.00,,---,0.00,VWS V13.01,2013-01-13 16:23:00,
2013-01-13 10:28:00,-0.7,-4.1,30.39,NW,311,2.0,11.0,85,0.00,,---,0.00,VWS V13.01,2013-01-13 16:28:00,
2013-01-13 10:33:00,-0.5,-3.7,30.38,West,281,5.0,10.0,86,0.00,,---,0.00,VWS V13.01,2013-01-13 16:33:00,
2013-01-13 10:38:00,-0.6,-4.0,30.38,WNW,299,7.0,10.0,85,0.00,,---,0.00,VWS V13.01,2013-01-13 16:38:00,
2013-01-13 10:44:00,-0.5,-3.7,30.38,NW,323,3.0,10.0,86,0.00,,---,0.00,VWS V13.01,2013-01-13 16:44:00,
2013-01-13 10:49:00,-0.6,-4.0,30.38,West,278,11.0,12.0,85,0.00,,---,0.00,VWS V13.01,2013-01-13 16:49:00,
2013-01-13 10:54:00,-0.6,-4.0,30.38,West,281,8.0,12.0,85,0.00,,---,0.00,VWS V13.01,2013-01-13 16:54:00,
2013-01-13 11:00:00,-0.7,-4.1,30.38,WNW,283,5.0,12.0,85,0.00,,---,0.00,VWS V13.01,2013-01-13 17:00:00,
2013-01-13 11:05:00,-0.6,-4.0,30.38,North,5,3.0,9.0,85,0.00,,---,0.00,VWS V13.01,2013-01-13 17:05:00,
2013-01-13 11:10:00,-0.8,-4.2,30.38,NW,306,1.0,10.0,85,0.00,,---,0.00,VWS V13.01,2013-01-13 17:10:00,
2013-01-13 11:15:00,-0.6,-4.0,30.38,WNW,293,6.0,10.0,85,0.00,,---,0.00,VWS V13.01,2013-01-13 17:15:00,
2013-01-13 11:21:00,-0.5,-3.9,30.38,NW,315,3.0,9.0,85,0.00,,---,0.00,VWS V13.01,2013-01-13 17:21:00,
2013-01-13 11:26:00,-0.1,-3.3,30.38,NW,325,1.0,9.0,86,0.00,,---,0.00,VWS V13.01,2013-01-13 17:26:00,
2013-01-13 11:31:00,-0.1,-3.4,30.36,NW,305,3.0,9.0,85,0.00,,---,0.00,VWS V13.01,2013-01-13 17:31:00,
2013-01-13 11:36:00,-0.1,-3.5,30.36,NNW,330,2.0,8.0,85,0.00,,---,0.00,VWS V13.01,2013-01-13 17:36:00,
2013-01-13 11:42:00,-0.1,-3.4,30.36,WNW,299,5.0,8.0,85,0.00,,---,0.00,VWS V13.01,2013-01-13 17:42:00,
2013-01-13 11:47:00,0.1,-3.4,30.34,NNW,346,5.0,9.0,85,0.00,,---,0.00,VWS V13.01,2013-01-13 17:47:00,
2013-01-13 11:52:00,0.1,-3.3,30.34,WSW,258,6.0,9.0,85,0.00,,---,0.00,VWS V13.01,2013-01-13 17:52:00,
2013-01-13 11:57:00,0.2,-3.2,30.34,WNW,300,5.0,11.0,85,0.00,,---,0.00,VWS V13.01,2013-01-13 17:57:00,
2013-01-13 12:03:00,0.4,-3.0,30.34,WNW,288,1.0,7.0,85,0.00,,---,0.00,VWS V13.01,2013-01-13 18:03:00,
2013-01-13 12:08:00,0.6,-2.8,30.34,WNW,296,6.0,9.0,85,0.00,,---,0.00,VWS V13.01,2013-01-13 18:08:00,
2013-01-13 12:13:00,0.7,-2.7,30.34,NW,310,8.0,11.0,85,0.00,,---,0.00,VWS V13.01,2013-01-13 18:13:00,
2013-01-13 12:19:00,0.7,-3.0,30.32,NNW,340,1.0,7.0,84,0.00,,---,0.00,VWS V13.01,2013-01-13 18:19:00,
2013-01-13 12:24:00,1.0,-2.5,30.32,NW,312,3.0,7.0,85,0.00,,---,0.00,VWS V13.01,2013-01-13 18:24:00,
2013-01-13 12:29:00,1.4,-2.0,30.32,North,355,2.0,9.0,85,0.00,,---,0.00,VWS V13.01,2013-01-13 18:29:00,
2013-01-13 12:34:00,1.4,-2.3,30.32,NNW,333,4.0,7.0,84,0.00,,---,0.00,VWS V13.01,2013-01-13 18:34:00,
2013-01-13 12:39:00,1.4,-2.3,30.32,West,276,5.0,11.0,84,0.00,,---,0.00,VWS V13.01,2013-01-13 18:39:00,
2013-01-13 12:45:00,1.6,-2.1,30.32,NW,320,1.0,11.0,84,0.00,,---,0.00,VWS V13.01,2013-01-13 18:45:00,
2013-01-13 12:50:00,1.9,-1.8,30.31,WNW,295,0.0,6.0,84,0.00,,---,0.00,VWS V13.01,2013-01-13 18:50:00,
2013-01-13 12:55:00,2.0,-1.7,30.31,NNW,337,3.0,10.0,84,0.00,,---,0.00,VWS V13.01,2013-01-13 18:55:00,
2013-01-13 13:00:00,1.8,-2.2,30.32,North,355,4.0,11.0,83,0.00,,---,0.00,VWS V13.01,2013-01-13 19:00:00,
2013-01-13 13:06:00,1.7,-2.3,30.32,NNW,347,3.0,6.0,83,0.00,,---,0.00,VWS V13.01,2013-01-13 19:06:00,
2013-01-13 13:11:00,2.1,-1.9,30.32,WNW,287,7.0,8.0,83,0.00,,---,0.00,VWS V13.01,2013-01-13 19:11:00,
2013-01-13 13:16:00,2.0,-2.0,30.31,NNW,336,5.0,11.0,83,0.00,,---,0.00,VWS V13.01,2013-01-13 19:16:00,
2013-01-13 13:21:00,1.9,-2.1,30.31,WNW,297,6.0,11.0,83,0.00,,---,0.00,VWS V13.01,2013-01-13 19:21:00,
2013-01-13 13:26:00,2.0,-2.0,30.31,NW,306,4.0,11.0,83,0.00,,---,0.00,VWS V13.01,2013-01-13 19:26:00,
2013-01-13 13:32:00,2.2,-1.8,30.31,North,360,6.0,10.0,83,0.00,,---,0.00,VWS V13.01,2013-01-13 19:32:00,
2013-01-13 13:37:00,2.1,-1.9,30.31,NW,315,6.0,11.0,83,0.00,,---,0.00,VWS V13.01,2013-01-13 19:37:00,
2013-01-13 13:42:00,1.9,-2.1,30.31,NNW,340,5.0,11.0,83,0.00,,---,0.00,VWS V13.01,2013-01-13 19:42:00,
2013-01-13 13:48:00,1.9,-2.1,30.32,NNW,348,2.0,7.0,83,0.00,,---,0.00,VWS V13.01,2013-01-13 19:48:00,
2013-01-13 13:53:00,2.0,-2.0,30.32,WNW,288,3.0,12.0,83,0.00,,---,0.00,VWS V13.01,2013-01-13 19:53:00,
2013-01-13 13:58:00,2.2,-1.5,30.32,NW,305,3.0,12.0,84,0.00,,---,0.00,VWS V13.01,2013-01-13 19:58:00,
2013-01-13 14:03:00,2.2,-1.5,30.32,North,9,7.0,11.0,84,0.00,,---,0.00,VWS V13.01,2013-01-13 20:03:00,
2013-01-13 14:09:00,2.3,-1.4,30.32,North,360,2.0,11.0,84,0.00,,---,0.00,VWS V13.01,2013-01-13 20:09:00,
2013-01-13 14:14:00,2.3,-1.4,30.32,WNW,299,7.0,11.0,84,0.00,,---,0.00,VWS V13.01,2013-01-13 20:14:00,
2013-01-13 14:19:00,2.3,-1.4,30.32,NNW,348,3.0,9.0,84,0.00,,---,0.00,VWS V13.01,2013-01-13 20:19:00,
2013-01-13 14:24:00,2.4,-1.3,30.32,NW,323,3.0,9.0,84,0.00,,---,0.00,VWS V13.01,2013-01-13 20:24:00,
2013-01-13 14:29:00,2.4,-1.3,30.32,NW,323,6.0,9.0,84,0.00,,---,0.00,VWS V13.01,2013-01-13 20:29:00,
2013-01-13 14:35:00,2.3,-1.7,30.34,NNW,333,5.0,12.0,83,0.00,,---,0.00,VWS V13.01,2013-01-13 20:35:00,
2013-01-13 14:40:00,2.4,-1.3,30.34,NW,318,3.0,12.0,84,0.00,,---,0.00,VWS V13.01,2013-01-13 20:40:00,
2013-01-13 14:45:00,2.5,-1.2,30.34,NW,306,3.0,12.0,84,0.00,,---,0.00,VWS V13.01,2013-01-13 20:45:00,
2013-01-13 14:50:00,2.4,-1.3,30.34,WNW,303,4.0,12.0,84,0.00,,---,0.00,VWS V13.01,2013-01-13 20:50:00,
2013-01-13 14:56:00,2.7,-1.0,30.34,West,279,3.0,12.0,84,0.00,,---,0.00,VWS V13.01,2013-01-13 20:56:00,
2013-01-13 15:01:00,2.8,-0.9,30.34,NNW,346,5.0,12.0,84,0.00,,---,0.00,VWS V13.01,2013-01-13 21:01:00,
2013-01-13 15:06:00,2.8,-0.9,30.34,NW,305,6.0,9.0,84,0.00,,---,0.00,VWS V13.01,2013-01-13 21:06:00,
2013-01-13 15:11:00,2.8,-0.9,30.34,NW,314,5.0,10.0,84,0.00,,---,0.00,VWS V13.01,2013-01-13 21:11:00,
2013-01-13 15:16:00,2.7,-1.0,30.36,NW,315,5.0,6.0,84,0.00,,---,0.00,VWS V13.01,2013-01-13 21:16:00,
2013-01-13 15:22:00,2.6,-1.1,30.36,NNW,343,4.0,11.0,84,0.00,,---,0.00,VWS V13.01,2013-01-13 21:22:00,
2013-01-13 15:27:00,2.5,-1.2,30.36,NW,311,4.0,11.0,84,0.00,,---,0.00,VWS V13.01,2013-01-13 21:27:00,
2013-01-13 15:32:00,2.5,-1.2,30.37,NNW,337,1.0,9.0,84,0.00,,---,0.00,VWS V13.01,2013-01-13 21:32:00,
2013-01-13 15:38:00,2.5,-1.2,30.37,WNW,300,0.0,9.0,84,0.00,,---,0.00,VWS V13.01,2013-01-13 21:38:00,
2013-01-13 15:43:00,2.5,-1.2,30.37,NW,314,7.0,10.0,84,0.00,,---,0.00,VWS V13.01,2013-01-13 21:43:00,
2013-01-13 15:48:00,2.5,-1.2,30.37,NW,321,5.0,8.0,84,0.00,,---,0.00,VWS V13.01,2013-01-13 21:48:00,
2013-01-13 15:53:00,2.4,-1.3,30.37,NNW,327,9.0,12.0,84,0.00,,---,0.00,VWS V13.01,2013-01-13 21:53:00,
2013-01-13 15:59:00,2.3,-1.2,30.37,NNW,343,8.0,14.0,85,0.00,,---,0.00,VWS V13.01,2013-01-13 21:59:00,
2013-01-13 16:04:00,2.4,-1.1,30.37,NW,305,3.0,6.0,85,0.00,,---,0.00,VWS V13.01,2013-01-13 22:04:00,
2013-01-13 16:09:00,2.5,-1.0,30.37,NW,317,3.0,9.0,85,0.00,,---,0.00,VWS V13.01,2013-01-13 22:09:00,
2013-01-13 16:14:00,2.5,-1.0,30.37,NNW,341,2.0,9.0,85,0.00,,---,0.00,VWS V13.01,2013-01-13 22:14:00,
2013-01-13 16:20:00,2.5,-1.0,30.37,NNW,343,2.0,6.0,85,0.00,,---,0.00,VWS V13.01,2013-01-13 22:20:00,
2013-01-13 16:25:00,2.6,-0.9,30.37,WNW,303,3.0,7.0,85,0.00,,---,0.00,VWS V13.01,2013-01-13 22:25:00,
2013-01-13 16:30:00,2.6,-0.9,30.37,NNW,341,2.0,9.0,85,0.00,,---,0.00,VWS V13.01,2013-01-13 22:30:00,
2013-01-13 16:35:00,2.6,-0.6,30.37,NW,326,1.0,9.0,86,0.00,,---,0.00,VWS V13.01,2013-01-13 22:35:00,
2013-01-13 16:41:00,2.6,-0.6,30.37,NW,315,1.0,9.0,86,0.00,,---,0.00,VWS V13.01,2013-01-13 22:41:00,
2013-01-13 16:46:00,2.5,-0.7,30.37,NW,323,3.0,12.0,86,0.00,,---,0.00,VWS V13.01,2013-01-13 22:46:00,
2013-01-13 16:51:00,2.6,-0.6,30.37,NW,306,3.0,12.0,86,0.00,,---,0.00,VWS V13.01,2013-01-13 22:51:00,
2013-01-13 16:57:00,2.6,-0.6,30.37,NW,323,4.0,12.0,86,0.00,,---,0.00,VWS V13.01,2013-01-13 22:57:00,
2013-01-13 17:02:00,2.7,-0.5,30.38,WNW,296,3.0,5.0,86,0.00,,---,0.00,VWS V13.01,2013-01-13 23:02:00,
2013-01-13 17:07:00,2.6,-0.6,30.38,WNW,298,9.0,12.0,86,0.00,,---,0.00,VWS V13.01,2013-01-13 23:07:00,
2013-01-13 17:12:00,2.4,-1.1,30.38,WNW,292,6.0,12.0,85,0.00,,---,0.00,VWS V13.01,2013-01-13 23:12:00,
2013-01-13 17:18:00,2.4,-0.8,30.39,NW,317,11.0,12.0,86,0.00,,---,0.00,VWS V13.01,2013-01-13 23:18:00,
2013-01-13 17:23:00,2.3,-0.9,30.39,NW,317,4.0,12.0,86,0.00,,---,0.00,VWS V13.01,2013-01-13 23:23:00,
2013-01-13 17:28:00,2.3,-0.9,30.39,NNW,345,1.0,12.0,86,0.00,,---,0.00,VWS V13.01,2013-01-13 23:28:00,
2013-01-13 17:34:00,2.3,-0.9,30.39,NW,323,2.0,9.0,86,0.00,,---,0.00,VWS V13.01,2013-01-13 23:34:00,
2013-01-13 17:39:00,2.3,-0.9,30.39,NNW,335,3.0,9.0,86,0.00,,---,0.00,VWS V13.01,2013-01-13 23:39:00,
2013-01-13 17:44:00,2.2,-1.0,30.39,NW,313,3.0,9.0,86,0.00,,---,0.00,VWS V13.01,2013-01-13 23:44:00,
2013-01-13 17:49:00,2.2,-1.0,30.40,NW,321,5.0,8.0,86,0.00,,---,0.00,VWS V13.01,2013-01-13 23:49:00,
2013-01-13 17:55:00,2.1,-1.1,30.40,NW,323,2.0,9.0,86,0.00,,---,0.00,VWS V13.01,2013-01-13 23:55:00,
2013-01-13 18:00:00,2.2,-1.0,30.40,NW,306,3.0,9.0,86,0.00,,---,0.00,VWS V13.01,2013-01-14 00:00:00,
2013-01-13 18:05:00,2.2,-1.0,30.40,NNW,341,2.0,11.0,86,0.00,,---,0.00,VWS V13.01,2013-01-14 00:05:00,
2013-01-13 18:10:00,2.2,-1.0,30.40,NNW,346,6.0,11.0,86,0.00,,---,0.00,VWS V13.01,2013-01-14 00:10:00,
2013-01-13 18:16:00,2.1,-1.1,30.39,NW,308,2.0,11.0,86,0.00,,---,0.00,VWS V13.01,2013-01-14 00:16:00,
2013-01-13 18:21:00,2.1,-1.1,30.39,West,277,6.0,10.0,86,0.00,,---,0.00,VWS V13.01,2013-01-14 00:21:00,
2013-01-13 18:26:00,2.1,-1.1,30.39,WNW,294,3.0,10.0,86,0.00,,---,0.00,VWS V13.01,2013-01-14 00:26:00,
2013-01-13 18:32:00,2.2,-0.8,30.40,NW,304,3.0,5.0,87,0.00,,---,0.00,VWS V13.01,2013-01-14 00:32:00,
2013-01-13 18:37:00,2.2,-0.8,30.40,WNW,292,1.0,5.0,87,0.00,,---,0.00,VWS V13.01,2013-01-14 00:37:00,
2013-01-13 18:42:00,2.3,-0.7,30.40,WNW,303,2.0,7.0,87,0.00,,---,0.00,VWS V13.01,2013-01-14 00:42:00,
2013-01-13 18:47:00,2.3,-0.7,30.40,WNW,283,4.0,10.0,87,0.00,,---,0.00,VWS V13.01,2013-01-14 00:47:00,
2013-01-13 18:53:00,2.2,-0.8,30.40,NW,320,4.0,11.0,87,0.00,,---,0.00,VWS V13.01,2013-01-14 00:53:00,
2013-01-13 18:58:00,2.2,-0.8,30.40,WNW,300,3.0,11.0,87,0.00,,---,0.00,VWS V13.01,2013-01-14 00:58:00,
2013-01-13 19:03:00,2.0,-1.0,30.40,WNW,296,6.0,10.0,87,0.00,,---,0.00,VWS V13.01,2013-01-14 01:03:00,
2013-01-13 19:08:00,2.0,-1.0,30.40,WNW,298,6.0,10.0,87,0.00,,---,0.00,VWS V13.01,2013-01-14 01:08:00,
2013-01-13 19:14:00,1.9,-1.1,30.40,West,275,6.0,10.0,87,0.00,,---,0.00,VWS V13.01,2013-01-14 01:14:00,
2013-01-13 19:19:00,1.9,-1.1,30.41,NW,315,3.0,10.0,87,0.00,,---,0.00,VWS V13.01,2013-01-14 01:19:00,
2013-01-13 19:24:00,1.7,-1.5,30.41,WNW,292,2.0,12.0,86,0.00,,---,0.00,VWS V13.01,2013-01-14 01:24:00,
2013-01-13 19:29:00,1.7,-1.3,30.41,NW,320,8.0,12.0,87,0.00,,---,0.00,VWS V13.01,2013-01-14 01:29:00,
2013-01-13 19:35:00,1.5,-1.5,30.41,WNW,302,3.0,10.0,87,0.00,,---,0.00,VWS V13.01,2013-01-14 01:35:00,
2013-01-13 19:40:00,1.5,-1.5,30.41,WNW,302,5.0,12.0,87,0.00,,---,0.00,VWS V13.01,2013-01-14 01:40:00,
2013-01-13 19:45:00,1.4,-1.6,30.41,NW,306,5.0,12.0,87,0.00,,---,0.00,VWS V13.01,2013-01-14 01:45:00,
2013-01-13 19:50:00,1.3,-1.7,30.41,NW,317,4.0,11.0,87,0.00,,---,0.00,VWS V13.01,2013-01-14 01:50:00,
2013-01-13 19:56:00,1.3,-1.7,30.41,NW,307,5.0,11.0,87,0.00,,---,0.00,VWS V13.01,2013-01-14 01:56:00,
2013-01-13 20:01:00,1.2,-1.8,30.42,WNW,292,3.0,14.0,87,0.00,,---,0.00,VWS V13.01,2013-01-14 02:01:00,
2013-01-13 20:06:00,1.1,-1.9,30.42,NW,312,7.0,9.0,87,0.00,,---,0.00,VWS V13.01,2013-01-14 02:06:00,
2013-01-13 20:11:00,1.0,-2.0,30.42,West,276,7.0,11.0,87,0.00,,---,0.00,VWS V13.01,2013-01-14 02:11:00,
2013-01-13 20:17:00,0.9,-2.3,30.42,WNW,299,4.0,6.0,86,0.00,,---,0.00,VWS V13.01,2013-01-14 02:17:00,
2013-01-13 20:22:00,0.8,-2.4,30.42,WNW,298,6.0,11.0,86,0.00,,---,0.00,VWS V13.01,2013-01-14 02:22:00,
2013-01-13 20:27:00,0.8,-2.4,30.42,WNW,300,2.0,11.0,86,0.00,,---,0.00,VWS V13.01,2013-01-14 02:27:00,
2013-01-13 20:32:00,0.6,-2.6,30.42,West,275,6.0,7.0,86,0.00,,---,0.00,VWS V13.01,2013-01-14 02:32:00,
2013-01-13 20:38:00,0.5,-2.5,30.42,West,281,5.0,9.0,87,0.00,,---,0.00,VWS V13.01,2013-01-14 02:38:00,
2013-01-13 20:43:00,0.5,-2.5,30.42,WNW,292,4.0,9.0,87,0.00,,---,0.00,VWS V13.01,2013-01-14 02:43:00,
2013-01-13 20:49:00,0.5,-2.5,30.42,WNW,290,4.0,10.0,87,0.00,,---,0.00,VWS V13.01,2013-01-14 02:49:00,
2013-01-13 20:55:00,0.4,-2.5,30.42,NW,318,6.0,11.0,87,0.00,,---,0.00,VWS V13.01,2013-01-14 02:55:00,
2013-01-13 21:00:00,0.3,-2.7,30.42,West,265,6.0,11.0,87,0.00,,---,0.00,VWS V13.01,2013-01-14 03:00:00,
2013-01-13 21:05:00,0.4,-2.5,30.45,NNW,333,1.0,9.0,87,0.00,,---,0.00,VWS V13.01,2013-01-14 03:05:00,
2013-01-13 21:10:00,0.4,-2.5,30.45,NW,325,7.0,11.0,87,0.00,,---,0.00,VWS V13.01,2013-01-14 03:10:00,
2013-01-13 21:16:00,0.4,-2.5,30.44,WNW,298,1.0,11.0,87,0.00,,---,0.00,VWS V13.01,2013-01-14 03:16:00,
2013-01-13 21:21:00,0.4,-2.5,30.44,West,277,4.0,8.0,87,0.00,,---,0.00,VWS V13.01,2013-01-14 03:21:00,
2013-01-13 21:26:00,0.3,-2.9,30.44,WNW,295,2.0,11.0,86,0.00,,---,0.00,VWS V13.01,2013-01-14 03:26:00,
2013-01-13 21:31:00,0.1,-3.1,30.45,West,279,6.0,11.0,86,0.00,,---,0.00,VWS V13.01,2013-01-14 03:31:00,
2013-01-13 21:36:00,0.1,-3.2,30.45,WNW,292,3.0,12.0,86,0.00,,---,0.00,VWS V13.01,2013-01-14 03:36:00,
2013-01-13 21:42:00,-0.2,-3.4,30.45,WNW,291,4.0,12.0,86,0.00,,---,0.00,VWS V13.01,2013-01-14 03:42:00,
2013-01-13 21:47:00,-0.3,-3.5,30.45,NW,324,3.0,5.0,86,0.00,,---,0.00,VWS V13.01,2013-01-14 03:47:00,
2013-01-13 21:52:00,-0.4,-3.6,30.45,WNW,283,5.0,7.0,86,0.00,,---,0.00,VWS V13.01,2013-01-14 03:52:00,
2013-01-13 21:57:00,-0.4,-3.6,30.45,NW,305,3.0,10.0,86,0.00,,---,0.00,VWS V13.01,2013-01-14 03:57:00,
2013-01-13 22:03:00,-0.5,-3.7,30.46,WNW,300,2.0,6.0,86,0.00,,---,0.00,VWS V13.01,2013-01-14 04:03:00,
2013-01-13 22:08:00,-0.5,-3.7,30.46,NW,307,3.0,10.0,86,0.00,,---,0.00,VWS V13.01,2013-01-14 04:08:00,
2013-01-13 22:13:00,-0.4,-3.6,30.46,WNW,284,6.0,11.0,86,0.00,,---,0.00,VWS V13.01,2013-01-14 04:13:00,
2013-01-13 22:18:00,-0.5,-3.7,30.47,WNW,289,2.0,11.0,86,0.00,,---,0.00,VWS V13.01,2013-01-14 04:18:00,
2013-01-13 22:24:00,-0.5,-3.7,30.47,NW,304,3.0,11.0,86,0.00,,---,0.00,VWS V13.01,2013-01-14 04:24:00,
2013-01-13 22:29:00,-0.5,-3.7,30.47,NW,317,3.0,11.0,86,0.00,,---,0.00,VWS V13.01,2013-01-14 04:29:00,
2013-01-13 22:34:00,-0.5,-3.7,30.48,West,281,5.0,7.0,86,0.00,,---,0.00,VWS V13.01,2013-01-14 04:34:00,
2013-01-13 22:40:00,-0.4,-3.6,30.48,WNW,297,1.0,8.0,86,0.00,,---,0.00,VWS V13.01,2013-01-14 04:40:00,
2013-01-13 22:45:00,-0.4,-3.6,30.48,West,273,8.0,11.0,86,0.00,,---,0.00,VWS V13.01,2013-01-14 04:45:00,
2013-01-13 22:50:00,-0.5,-3.7,30.47,WNW,287,1.0,6.0,86,0.00,,---,0.00,VWS V13.01,2013-01-14 04:50:00,
2013-01-13 22:55:00,-0.7,-3.9,30.47,West,277,0.0,10.0,86,0.00,,---,0.00,VWS V13.01,2013-01-14 04:55:00,
2013-01-13 23:01:00,-1.0,-4.2,30.49,West,269,4.0,12.0,86,0.00,,---,0.00,VWS V13.01,2013-01-14 05:01:00,
2013-01-13 23:02:00,-1.1,-4.3,30.49,West,264,10.0,10.0,86,0.00,,---,0.00,VWS V13.01,2013-01-14 05:02:00,
2013-01-13 23:04:00,-1.2,-4.4,30.49,WNW,290,4.0,11.0,86,0.00,,---,0.00,VWS V13.01,2013-01-14 05:04:00,
2013-01-13 23:05:00,-1.2,-4.4,30.49,NW,309,3.0,11.0,86,0.00,,---,0.00,VWS V13.01,2013-01-14 05:05:00,
2013-01-13 23:10:00,-1.4,-4.6,30.49,WNW,286,5.0,11.0,86,0.00,,---,0.00,VWS V13.01,2013-01-14 05:10:00,
2013-01-13 23:15:00,-1.4,-4.6,30.49,West,269,3.0,11.0,86,0.00,,---,0.00,VWS V13.01,2013-01-14 05:15:00,
2013-01-13 23:20:00,-1.4,-4.6,30.48,WNW,287,0.0,6.0,86,0.00,,---,0.00,VWS V13.01,2013-01-14 05:20:00,
2013-01-13 23:26:00,-1.5,-4.7,30.48,West,281,4.0,10.0,86,0.00,,---,0.00,VWS V13.01,2013-01-14 05:26:00,
2013-01-13 23:31:00,-1.6,-4.8,30.51,WNW,287,4.0,10.0,86,0.00,,---,0.00,VWS V13.01,2013-01-14 05:31:00,
2013-01-13 23:36:00,-1.6,-4.8,30.51,WNW,283,3.0,7.0,86,0.00,,---,0.00,VWS V13.01,2013-01-14 05:36:00,
2013-01-13 23:41:00,-1.6,-4.8,30.51,West,268,1.0,10.0,86,0.00,,---,0.00,VWS V13.01,2013-01-14 05:41:00,
2013-01-13 23:47:00,-1.8,-5.0,30.51,NW,304,4.0,4.0,86,0.00,,---,0.00,VWS V13.01,2013-01-14 05:47:00,
2013-01-13 23:52:00,-1.8,-5.0,30.51,West,277,1.0,9.0,86,0.00,,---,0.00,VWS V13.01,2013-01-14 05:52:00,
2013-01-13 23:57:00,-1.9,-5.1,30.51,WNW,287,4.0,9.0,86,0.00,,---,0.00,VWS V13.01,2013-01-14 05:57:00,